sensor_id;sensor_type;location;lat;lon;timestamp;pressure;altitude;pressure_sealevel;temperature;humidity
28648;BME280;17137;51.494;-0.262;2023-05-24T00:00:09;50150.39;;;-145.72;62.08
28648;BME280;17137;51.494;-0.262;2023-05-24T00:00:40;50145.22;;;-145.72;62.00
28648;BME280;17137;51.494;-0.262;2023-05-24T00:01:10;50147.19;;;-145.72;62.24
28648;BME280;17137;51.494;-0.262;2023-05-24T00:01:40;50149.41;;;-145.72;62.08
28648;BME280;17137;51.494;-0.262;2023-05-24T00:02:11;50152.00;;;-145.72;62.17
28648;BME280;17137;51.494;-0.262;2023-05-24T00:02:41;50159.76;;;-145.72;62.17
28648;BME280;17137;51.494;-0.262;2023-05-24T00:03:11;50152.37;;;-145.72;61.92
28648;BME280;17137;51.494;-0.262;2023-05-24T00:03:42;50141.89;;;-145.72;61.99
28648;BME280;17137;51.494;-0.262;2023-05-24T00:04:12;50150.52;;;-145.72;62.13
28648;BME280;17137;51.494;-0.262;2023-05-24T00:04:42;50159.89;;;-145.72;62.23
28648;BME280;17137;51.494;-0.262;2023-05-24T00:05:13;50170.98;;;-145.72;62.55
28648;BME280;17137;51.494;-0.262;2023-05-24T00:05:43;50152.86;;;-145.72;62.34
28648;BME280;17137;51.494;-0.262;2023-05-24T00:06:13;50163.46;;;-145.72;62.37
28648;BME280;17137;51.494;-0.262;2023-05-24T00:06:44;50169.87;;;-145.72;62.69
28648;BME280;17137;51.494;-0.262;2023-05-24T00:07:14;50155.33;;;-145.72;62.65
28648;BME280;17137;51.494;-0.262;2023-05-24T00:07:44;50166.42;;;-145.72;62.26
28648;BME280;17137;51.494;-0.262;2023-05-24T00:08:14;50154.71;;;-145.72;62.12
28648;BME280;17137;51.494;-0.262;2023-05-24T00:08:45;50156.19;;;-145.72;61.69
28648;BME280;17137;51.494;-0.262;2023-05-24T00:09:15;50143.00;;;-145.72;61.18
28648;BME280;17137;51.494;-0.262;2023-05-24T00:09:45;50148.30;;;-145.72;60.93
28648;BME280;17137;51.494;-0.262;2023-05-24T00:10:16;50146.82;;;-145.72;60.56
28648;BME280;17137;51.494;-0.262;2023-05-24T00:10:46;50140.04;;;-145.72;60.28
28648;BME280;17137;51.494;-0.262;2023-05-24T00:11:16;50153.48;;;-145.72;60.24
28648;BME280;17137;51.494;-0.262;2023-05-24T00:11:47;50154.96;;;-145.72;59.76
28648;BME280;17137;51.494;-0.262;2023-05-24T00:12:17;50153.48;;;-145.72;59.57
28648;BME280;17137;51.494;-0.262;2023-05-24T00:12:47;50148.30;;;-145.72;59.67
28648;BME280;17137;51.494;-0.262;2023-05-24T00:13:18;50163.71;;;-145.72;60.49
28648;BME280;17137;51.494;-0.262;2023-05-24T00:13:48;50154.83;;;-145.72;60.53
28648;BME280;17137;51.494;-0.262;2023-05-24T00:14:19;50146.94;;;-145.72;60.33
28648;BME280;17137;51.494;-0.262;2023-05-24T00:14:49;50149.90;;;-145.72;60.05
28648;BME280;17137;51.494;-0.262;2023-05-24T00:15:19;50149.04;;;-145.72;59.82
28648;BME280;17137;51.494;-0.262;2023-05-24T00:15:50;50160.63;;;-145.72;59.45
28648;BME280;17137;51.494;-0.262;2023-05-24T00:16:20;50151.75;;;-145.72;59.31
28648;BME280;17137;51.494;-0.262;2023-05-24T00:16:50;50141.89;;;-145.72;58.99
28648;BME280;17137;51.494;-0.262;2023-05-24T00:17:21;50139.67;;;-145.72;58.51
28648;BME280;17137;51.494;-0.262;2023-05-24T00:17:51;50137.45;;;-145.72;58.45
28648;BME280;17137;51.494;-0.262;2023-05-24T00:18:21;50143.74;;;-145.72;58.40
28648;BME280;17137;51.494;-0.262;2023-05-24T00:18:52;50148.92;;;-145.72;58.49
28648;BME280;17137;51.494;-0.262;2023-05-24T00:19:22;50160.38;;;-145.72;58.83
28648;BME280;17137;51.494;-0.262;2023-05-24T00:19:52;50150.52;;;-145.72;58.70
28648;BME280;17137;51.494;-0.262;2023-05-24T00:20:23;50151.50;;;-145.72;58.64
28648;BME280;17137;51.494;-0.262;2023-05-24T00:20:53;50153.60;;;-145.72;58.67
28648;BME280;17137;51.494;-0.262;2023-05-24T00:21:24;50167.53;;;-145.72;58.89
28648;BME280;17137;51.494;-0.262;2023-05-24T00:21:54;50147.07;;;-145.72;58.99
28648;BME280;17137;51.494;-0.262;2023-05-24T00:22:25;50172.09;;;-145.72;59.11
28648;BME280;17137;51.494;-0.262;2023-05-24T00:22:55;50171.23;;;-145.72;59.38
28648;BME280;17137;51.494;-0.262;2023-05-24T00:23:26;50162.97;;;-145.72;59.60
28648;BME280;17137;51.494;-0.262;2023-05-24T00:23:56;50162.97;;;-145.72;59.58
28648;BME280;17137;51.494;-0.262;2023-05-24T00:24:26;50161.86;;;-145.72;59.58
28648;BME280;17137;51.494;-0.262;2023-05-24T00:24:57;50160.13;;;-145.72;59.45
28648;BME280;17137;51.494;-0.262;2023-05-24T00:25:27;50165.56;;;-145.72;59.58
28648;BME280;17137;51.494;-0.262;2023-05-24T00:25:57;50167.28;;;-145.72;60.08
28648;BME280;17137;51.494;-0.262;2023-05-24T00:26:28;50158.78;;;-145.72;60.46
28648;BME280;17137;51.494;-0.262;2023-05-24T00:26:58;50175.91;;;-145.72;60.52
28648;BME280;17137;51.494;-0.262;2023-05-24T00:27:28;50179.98;;;-145.72;60.67
28648;BME280;17137;51.494;-0.262;2023-05-24T00:27:58;50169.01;;;-145.72;60.63
28648;BME280;17137;51.494;-0.262;2023-05-24T00:28:29;50164.69;;;-145.72;60.56
28648;BME280;17137;51.494;-0.262;2023-05-24T00:28:59;50161.24;;;-145.72;60.46
28648;BME280;17137;51.494;-0.262;2023-05-24T00:29:30;50168.27;;;-145.72;60.74
28648;BME280;17137;51.494;-0.262;2023-05-24T00:30:00;50163.34;;;-145.72;60.68
28648;BME280;17137;51.494;-0.262;2023-05-24T00:30:31;50169.38;;;-145.72;60.53
28648;BME280;17137;51.494;-0.262;2023-05-24T00:31:01;50153.72;;;-145.72;60.54
28648;BME280;17137;51.494;-0.262;2023-05-24T00:31:37;50166.91;;;-145.72;60.69
28648;BME280;17137;51.494;-0.262;2023-05-24T00:32:07;50168.64;;;-145.72;60.47
28648;BME280;17137;51.494;-0.262;2023-05-24T00:32:38;50160.38;;;-145.72;60.20
28648;BME280;17137;51.494;-0.262;2023-05-24T00:33:08;50162.84;;;-145.72;60.41
28648;BME280;17137;51.494;-0.262;2023-05-24T00:33:39;50169.50;;;-145.72;60.17
28648;BME280;17137;51.494;-0.262;2023-05-24T00:34:09;50161.37;;;-145.72;60.16
28648;BME280;17137;51.494;-0.262;2023-05-24T00:34:39;50163.09;;;-145.72;59.99
28648;BME280;17137;51.494;-0.262;2023-05-24T00:35:10;50160.50;;;-145.72;59.64
28648;BME280;17137;51.494;-0.262;2023-05-24T00:35:40;50154.22;;;-145.72;59.47
28648;BME280;17137;51.494;-0.262;2023-05-24T00:36:10;50153.35;;;-145.72;59.63
28648;BME280;17137;51.494;-0.262;2023-05-24T00:36:40;50156.43;;;-145.72;59.50
28648;BME280;17137;51.494;-0.262;2023-05-24T00:37:11;50167.28;;;-145.72;59.67
28648;BME280;17137;51.494;-0.262;2023-05-24T00:37:41;50165.80;;;-145.72;59.47
28648;BME280;17137;51.494;-0.262;2023-05-24T00:38:11;50167.65;;;-145.72;59.34
28648;BME280;17137;51.494;-0.262;2023-05-24T00:38:42;50167.04;;;-145.72;58.92
28648;BME280;17137;51.494;-0.262;2023-05-24T00:39:12;50164.82;;;-145.72;58.76
28648;BME280;17137;51.494;-0.262;2023-05-24T00:39:42;50160.01;;;-145.72;58.81
28648;BME280;17137;51.494;-0.262;2023-05-24T00:40:13;50165.56;;;-145.72;58.71
28648;BME280;17137;51.494;-0.262;2023-05-24T00:40:43;50155.08;;;-145.72;58.41
28648;BME280;17137;51.494;-0.262;2023-05-24T00:41:13;50169.87;;;-145.72;58.14
28648;BME280;17137;51.494;-0.262;2023-05-24T00:41:44;50167.77;;;-145.72;58.03
28648;BME280;17137;51.494;-0.262;2023-05-24T00:42:14;50173.45;;;-145.72;58.27
28648;BME280;17137;51.494;-0.262;2023-05-24T00:42:44;50163.71;;;-145.72;58.02
28648;BME280;17137;51.494;-0.262;2023-05-24T00:43:15;50161.49;;;-145.72;57.82
28648;BME280;17137;51.494;-0.262;2023-05-24T00:43:45;50157.30;;;-145.72;57.58
28648;BME280;17137;51.494;-0.262;2023-05-24T00:44:16;50158.41;;;-145.72;57.36
28648;BME280;17137;51.494;-0.262;2023-05-24T00:44:46;50152.86;;;-145.72;57.23
28648;BME280;17137;51.494;-0.262;2023-05-24T00:45:16;50159.27;;;-145.72;57.20
28648;BME280;17137;51.494;-0.262;2023-05-24T00:45:47;50160.38;;;-145.72;56.89
28648;BME280;17137;51.494;-0.262;2023-05-24T00:46:19;50157.91;;;-145.72;56.62
28648;BME280;17137;51.494;-0.262;2023-05-24T00:46:50;50159.15;;;-145.72;56.65
28648;BME280;17137;51.494;-0.262;2023-05-24T00:47:20;50165.56;;;-145.72;56.45
28648;BME280;17137;51.494;-0.262;2023-05-24T00:47:50;50151.01;;;-145.72;56.34
28648;BME280;17137;51.494;-0.262;2023-05-24T00:48:21;50170.86;;;-145.72;56.32
28648;BME280;17137;51.494;-0.262;2023-05-24T00:48:52;50164.45;;;-145.72;56.62
28648;BME280;17137;51.494;-0.262;2023-05-24T00:49:23;50163.21;;;-145.72;56.54
28648;BME280;17137;51.494;-0.262;2023-05-24T00:49:54;50160.13;;;-145.72;56.33
28648;BME280;17137;51.494;-0.262;2023-05-24T00:50:25;50162.97;;;-145.72;55.95
28648;BME280;17137;51.494;-0.262;2023-05-24T00:50:55;50152.98;;;-145.72;55.71
28648;BME280;17137;51.494;-0.262;2023-05-24T00:51:26;50154.22;;;-145.72;55.22
28648;BME280;17137;51.494;-0.262;2023-05-24T00:51:56;50159.76;;;-145.72;55.12
28648;BME280;17137;51.494;-0.262;2023-05-24T00:52:26;50145.34;;;-145.72;55.02
28648;BME280;17137;51.494;-0.262;2023-05-24T00:53:02;50155.45;;;-145.72;54.83
28648;BME280;17137;51.494;-0.262;2023-05-24T00:53:35;50151.87;;;-145.72;54.63
28648;BME280;17137;51.494;-0.262;2023-05-24T00:54:05;50159.02;;;-145.72;54.53
28648;BME280;17137;51.494;-0.262;2023-05-24T00:54:36;50152.86;;;-145.72;54.53
28648;BME280;17137;51.494;-0.262;2023-05-24T00:55:08;50153.60;;;-145.72;54.49
28648;BME280;17137;51.494;-0.262;2023-05-24T00:55:39;50150.89;;;-145.72;54.50
28648;BME280;17137;51.494;-0.262;2023-05-24T00:56:10;50150.52;;;-145.72;54.42
28648;BME280;17137;51.494;-0.262;2023-05-24T00:56:42;50160.63;;;-145.72;54.40
28648;BME280;17137;51.494;-0.262;2023-05-24T00:57:12;50162.23;;;-145.72;54.35
28648;BME280;17137;51.494;-0.262;2023-05-24T00:57:43;50148.55;;;-145.72;54.22
28648;BME280;17137;51.494;-0.262;2023-05-24T00:58:13;50149.78;;;-145.72;54.02
28648;BME280;17137;51.494;-0.262;2023-05-24T00:58:44;50158.65;;;-145.72;54.02
28648;BME280;17137;51.494;-0.262;2023-05-24T00:59:14;50158.53;;;-145.72;54.22
28648;BME280;17137;51.494;-0.262;2023-05-24T00:59:45;50157.91;;;-145.72;54.15
28648;BME280;17137;51.494;-0.262;2023-05-24T01:00:16;50159.39;;;-145.72;54.12
28648;BME280;17137;51.494;-0.262;2023-05-24T01:00:46;50152.74;;;-145.72;54.08
28648;BME280;17137;51.494;-0.262;2023-05-24T01:01:17;50152.49;;;-145.72;53.81
28648;BME280;17137;51.494;-0.262;2023-05-24T01:01:48;50161.49;;;-145.72;53.84
28648;BME280;17137;51.494;-0.262;2023-05-24T01:02:18;50157.42;;;-145.72;54.04
28648;BME280;17137;51.494;-0.262;2023-05-24T01:02:49;50168.88;;;-145.72;54.16
28648;BME280;17137;51.494;-0.262;2023-05-24T01:03:19;50155.33;;;-145.72;53.92
28648;BME280;17137;51.494;-0.262;2023-05-24T01:03:50;50150.27;;;-145.72;53.78
28648;BME280;17137;51.494;-0.262;2023-05-24T01:04:20;50156.80;;;-145.72;53.70
28648;BME280;17137;51.494;-0.262;2023-05-24T01:04:50;50153.60;;;-145.72;53.85
28648;BME280;17137;51.494;-0.262;2023-05-24T01:05:21;50171.35;;;-145.72;54.82
28648;BME280;17137;51.494;-0.262;2023-05-24T01:05:51;50173.32;;;-145.72;55.07
28648;BME280;17137;51.494;-0.262;2023-05-24T01:06:22;50165.93;;;-145.72;54.86
28648;BME280;17137;51.494;-0.262;2023-05-24T01:07:04;50157.17;;;-145.72;54.37
28648;BME280;17137;51.494;-0.262;2023-05-24T01:07:44;50162.97;;;-145.72;54.16
28648;BME280;17137;51.494;-0.262;2023-05-24T01:08:22;50161.49;;;-145.72;54.13
28648;BME280;17137;51.494;-0.262;2023-05-24T01:09:08;50161.86;;;-145.72;54.35
28648;BME280;17137;51.494;-0.262;2023-05-24T01:09:52;50158.28;;;-145.72;54.32
28648;BME280;17137;51.494;-0.262;2023-05-24T01:10:31;50161.73;;;-145.72;54.20
28648;BME280;17137;51.494;-0.262;2023-05-24T01:11:08;50164.20;;;-145.72;54.09
28648;BME280;17137;51.494;-0.262;2023-05-24T01:11:55;50162.84;;;-145.72;54.43
28648;BME280;17137;51.494;-0.262;2023-05-24T01:12:35;50162.60;;;-145.72;54.21
28648;BME280;17137;51.494;-0.262;2023-05-24T01:13:19;50151.38;;;-145.72;54.29
28648;BME280;17137;51.494;-0.262;2023-05-24T01:13:56;50162.23;;;-145.72;54.51
28648;BME280;17137;51.494;-0.262;2023-05-24T01:14:33;50163.95;;;-145.72;54.59
28648;BME280;17137;51.494;-0.262;2023-05-24T01:15:16;50158.65;;;-145.72;54.32
28648;BME280;17137;51.494;-0.262;2023-05-24T01:15:52;50157.91;;;-145.72;54.03
28648;BME280;17137;51.494;-0.262;2023-05-24T01:16:38;50166.42;;;-145.72;54.11
28648;BME280;17137;51.494;-0.262;2023-05-24T01:17:15;50163.58;;;-145.72;54.09
28648;BME280;17137;51.494;-0.262;2023-05-24T01:17:52;50164.45;;;-145.72;54.14
28648;BME280;17137;51.494;-0.262;2023-05-24T01:18:26;50174.68;;;-145.72;54.12
28648;BME280;17137;51.494;-0.262;2023-05-24T01:19:04;50165.68;;;-145.72;54.35
28648;BME280;17137;51.494;-0.262;2023-05-24T01:19:48;50164.94;;;-145.72;54.17
28648;BME280;17137;51.494;-0.262;2023-05-24T01:20:20;50160.13;;;-145.72;54.16
28648;BME280;17137;51.494;-0.262;2023-05-24T01:21:00;50165.80;;;-145.72;54.37
28648;BME280;17137;51.494;-0.262;2023-05-24T01:21:46;50166.91;;;-145.72;54.59
28648;BME280;17137;51.494;-0.262;2023-05-24T01:22:36;50169.62;;;-145.72;54.30
28648;BME280;17137;51.494;-0.262;2023-05-24T01:23:46;50174.06;;;-145.72;54.09
28648;BME280;17137;51.494;-0.262;2023-05-24T01:24:27;50162.72;;;-145.72;53.97
28648;BME280;17137;51.494;-0.262;2023-05-24T01:25:03;50164.94;;;-145.72;53.96
28648;BME280;17137;51.494;-0.262;2023-05-24T01:25:46;50178.01;;;-145.72;54.53
28648;BME280;17137;51.494;-0.262;2023-05-24T01:26:26;50175.66;;;-145.72;54.59
28648;BME280;17137;51.494;-0.262;2023-05-24T01:27:06;50167.41;;;-145.72;54.47
28648;BME280;17137;51.494;-0.262;2023-05-24T01:27:37;50176.28;;;-145.72;54.90
28648;BME280;17137;51.494;-0.262;2023-05-24T01:28:08;50177.64;;;-145.72;55.22
28648;BME280;17137;51.494;-0.262;2023-05-24T01:28:40;50187.50;;;-145.72;55.60
28648;BME280;17137;51.494;-0.262;2023-05-24T01:29:12;50183.18;;;-145.72;55.84
28648;BME280;17137;51.494;-0.262;2023-05-24T01:29:42;50190.21;;;-145.72;56.33
28648;BME280;17137;51.494;-0.262;2023-05-24T01:30:13;50188.48;;;-145.72;56.02
28648;BME280;17137;51.494;-0.262;2023-05-24T01:30:44;50186.63;;;-145.72;56.23
28648;BME280;17137;51.494;-0.262;2023-05-24T01:31:16;50193.29;;;-145.72;56.81
28648;BME280;17137;51.494;-0.262;2023-05-24T01:31:47;50200.32;;;-145.72;56.85
28648;BME280;17137;51.494;-0.262;2023-05-24T01:32:18;50185.89;;;-145.72;56.60
28648;BME280;17137;51.494;-0.262;2023-05-24T01:32:48;50189.84;;;-145.72;56.47
28648;BME280;17137;51.494;-0.262;2023-05-24T01:33:19;50189.10;;;-145.72;56.36
28648;BME280;17137;51.494;-0.262;2023-05-24T01:33:49;50172.09;;;-145.72;56.25
28648;BME280;17137;51.494;-0.262;2023-05-24T01:34:20;50186.26;;;-145.72;56.25
28648;BME280;17137;51.494;-0.262;2023-05-24T01:34:50;50184.54;;;-145.72;56.23
28648;BME280;17137;51.494;-0.262;2023-05-24T01:35:20;50179.24;;;-145.72;56.08
28648;BME280;17137;51.494;-0.262;2023-05-24T01:35:51;50181.09;;;-145.72;55.99
28648;BME280;17137;51.494;-0.262;2023-05-24T01:36:21;50194.15;;;-145.72;56.22
28648;BME280;17137;51.494;-0.262;2023-05-24T01:36:51;50185.89;;;-145.72;56.26
28648;BME280;17137;51.494;-0.262;2023-05-24T01:37:22;50185.65;;;-145.72;56.12
28648;BME280;17137;51.494;-0.262;2023-05-24T01:37:52;50190.46;;;-145.72;56.40
28648;BME280;17137;51.494;-0.262;2023-05-24T01:38:22;50179.98;;;-145.72;56.76
28648;BME280;17137;51.494;-0.262;2023-05-24T01:38:53;50185.03;;;-145.72;56.59
28648;BME280;17137;51.494;-0.262;2023-05-24T01:39:26;50194.77;;;-145.72;56.64
28648;BME280;17137;51.494;-0.262;2023-05-24T01:39:58;50187.87;;;-145.72;56.68
28648;BME280;17137;51.494;-0.262;2023-05-24T01:40:28;50190.83;;;-145.72;56.75
28648;BME280;17137;51.494;-0.262;2023-05-24T01:41:03;50178.99;;;-145.72;56.79
28648;BME280;17137;51.494;-0.262;2023-05-24T01:41:40;50193.17;;;-145.72;56.79
28648;BME280;17137;51.494;-0.262;2023-05-24T01:42:21;50181.58;;;-145.72;56.72
28648;BME280;17137;51.494;-0.262;2023-05-24T01:43:05;50188.73;;;-145.72;56.77
28648;BME280;17137;51.494;-0.262;2023-05-24T01:43:42;50184.91;;;-145.72;56.92
28648;BME280;17137;51.494;-0.262;2023-05-24T01:44:19;50191.69;;;-145.72;57.57
28648;BME280;17137;51.494;-0.262;2023-05-24T01:45:01;50198.84;;;-145.72;57.45
28648;BME280;17137;51.494;-0.262;2023-05-24T01:45:37;50182.07;;;-145.72;57.13
28648;BME280;17137;51.494;-0.262;2023-05-24T01:46:12;50183.31;;;-145.72;57.04
28648;BME280;17137;51.494;-0.262;2023-05-24T01:46:51;50188.61;;;-145.72;57.09
28648;BME280;17137;51.494;-0.262;2023-05-24T01:47:28;50189.22;;;-145.72;57.01
28648;BME280;17137;51.494;-0.262;2023-05-24T01:48:08;50186.02;;;-145.72;56.90
28648;BME280;17137;51.494;-0.262;2023-05-24T01:48:50;50193.78;;;-145.72;57.05
28648;BME280;17137;51.494;-0.262;2023-05-24T01:49:26;50204.26;;;-145.72;57.95
28648;BME280;17137;51.494;-0.262;2023-05-24T01:50:09;50197.61;;;-145.72;57.88
28648;BME280;17137;51.494;-0.262;2023-05-24T01:50:45;50190.21;;;-145.72;57.79
28648;BME280;17137;51.494;-0.262;2023-05-24T01:51:19;50200.07;;;-145.72;58.57
28648;BME280;17137;51.494;-0.262;2023-05-24T01:51:56;50197.36;;;-145.72;58.39
28648;BME280;17137;51.494;-0.262;2023-05-24T01:52:30;50207.22;;;-145.72;58.38
28648;BME280;17137;51.494;-0.262;2023-05-24T01:53:04;50192.92;;;-145.72;58.27
28648;BME280;17137;51.494;-0.262;2023-05-24T01:53:40;50198.34;;;-145.72;58.12
28648;BME280;17137;51.494;-0.262;2023-05-24T01:54:13;50190.70;;;-145.72;58.07
28648;BME280;17137;51.494;-0.262;2023-05-24T01:54:49;50194.89;;;-145.72;57.91
28648;BME280;17137;51.494;-0.262;2023-05-24T01:55:21;50195.63;;;-145.72;57.96
28648;BME280;17137;51.494;-0.262;2023-05-24T01:55:54;50205.86;;;-145.72;57.95
28648;BME280;17137;51.494;-0.262;2023-05-24T01:56:27;50192.18;;;-145.72;57.86
28648;BME280;17137;51.494;-0.262;2023-05-24T01:56:58;50198.34;;;-145.72;58.00
28648;BME280;17137;51.494;-0.262;2023-05-24T01:57:32;50200.69;;;-145.72;58.44
28648;BME280;17137;51.494;-0.262;2023-05-24T01:58:04;50203.15;;;-145.72;58.42
28648;BME280;17137;51.494;-0.262;2023-05-24T01:58:35;50198.59;;;-145.72;58.26
28648;BME280;17137;51.494;-0.262;2023-05-24T01:59:08;50202.04;;;-145.72;58.20
28648;BME280;17137;51.494;-0.262;2023-05-24T01:59:41;50196.74;;;-145.72;58.20
28648;BME280;17137;51.494;-0.262;2023-05-24T02:00:14;50192.30;;;-145.72;58.09
28648;BME280;17137;51.494;-0.262;2023-05-24T02:00:46;50192.06;;;-145.72;58.01
28648;BME280;17137;51.494;-0.262;2023-05-24T02:01:17;50194.03;;;-145.72;57.85
28648;BME280;17137;51.494;-0.262;2023-05-24T02:01:48;50195.88;;;-145.72;57.78
28648;BME280;17137;51.494;-0.262;2023-05-24T02:02:18;50194.65;;;-145.72;58.04
28648;BME280;17137;51.494;-0.262;2023-05-24T02:02:49;50190.21;;;-145.72;58.36
28648;BME280;17137;51.494;-0.262;2023-05-24T02:03:20;50200.81;;;-145.72;58.57
28648;BME280;17137;51.494;-0.262;2023-05-24T02:03:51;50198.84;;;-145.72;58.63
28648;BME280;17137;51.494;-0.262;2023-05-24T02:04:21;50205.00;;;-145.72;58.68
28648;BME280;17137;51.494;-0.262;2023-05-24T02:04:53;50197.36;;;-145.72;58.43
28648;BME280;17137;51.494;-0.262;2023-05-24T02:05:24;50188.48;;;-145.72;58.35
28648;BME280;17137;51.494;-0.262;2023-05-24T02:05:54;50194.28;;;-145.72;58.48
28648;BME280;17137;51.494;-0.262;2023-05-24T02:06:25;50192.55;;;-145.72;58.63
28648;BME280;17137;51.494;-0.262;2023-05-24T02:06:55;50200.69;;;-145.72;58.99
28648;BME280;17137;51.494;-0.262;2023-05-24T02:07:25;50208.70;;;-145.72;59.37
28648;BME280;17137;51.494;-0.262;2023-05-24T02:07:56;50201.92;;;-145.72;59.26
28648;BME280;17137;51.494;-0.262;2023-05-24T02:08:26;50202.78;;;-145.72;59.14
28648;BME280;17137;51.494;-0.262;2023-05-24T02:08:56;50208.08;;;-145.72;59.31
28648;BME280;17137;51.494;-0.262;2023-05-24T02:09:26;50208.45;;;-145.72;59.72
28648;BME280;17137;51.494;-0.262;2023-05-24T02:09:57;50196.50;;;-145.72;59.66
28648;BME280;17137;51.494;-0.262;2023-05-24T02:10:27;50204.63;;;-145.72;59.55
28648;BME280;17137;51.494;-0.262;2023-05-24T02:10:57;50209.32;;;-145.72;59.33
28648;BME280;17137;51.494;-0.262;2023-05-24T02:11:28;50203.28;;;-145.72;59.31
28648;BME280;17137;51.494;-0.262;2023-05-24T02:11:58;50193.91;;;-145.72;59.30
28648;BME280;17137;51.494;-0.262;2023-05-24T02:12:28;50212.40;;;-145.72;59.47
28648;BME280;17137;51.494;-0.262;2023-05-24T02:12:59;50214.86;;;-145.72;59.82
28648;BME280;17137;51.494;-0.262;2023-05-24T02:13:29;50202.91;;;-145.72;59.70
28648;BME280;17137;51.494;-0.262;2023-05-24T02:14:00;50206.97;;;-145.72;59.72
28648;BME280;17137;51.494;-0.262;2023-05-24T02:14:30;50204.75;;;-145.72;60.01
28648;BME280;17137;51.494;-0.262;2023-05-24T02:15:00;50205.62;;;-145.72;60.08
28648;BME280;17137;51.494;-0.262;2023-05-24T02:15:31;50206.48;;;-145.72;60.40
28648;BME280;17137;51.494;-0.262;2023-05-24T02:16:01;50205.49;;;-145.72;60.52
28648;BME280;17137;51.494;-0.262;2023-05-24T02:16:31;50221.64;;;-145.72;61.08
28648;BME280;17137;51.494;-0.262;2023-05-24T02:17:02;50222.38;;;-145.72;61.04
28648;BME280;17137;51.494;-0.262;2023-05-24T02:17:32;50214.99;;;-145.72;60.92
28648;BME280;17137;51.494;-0.262;2023-05-24T02:18:04;50206.36;;;-145.72;60.90
28648;BME280;17137;51.494;-0.262;2023-05-24T02:18:34;50218.07;;;-145.72;60.81
28648;BME280;17137;51.494;-0.262;2023-05-24T02:19:04;50216.83;;;-145.72;60.96
28648;BME280;17137;51.494;-0.262;2023-05-24T02:19:35;50227.68;;;-145.72;61.27
28648;BME280;17137;51.494;-0.262;2023-05-24T02:20:06;50216.71;;;-145.72;61.34
28648;BME280;17137;51.494;-0.262;2023-05-24T02:20:36;50218.07;;;-145.72;61.27
28648;BME280;17137;51.494;-0.262;2023-05-24T02:21:07;50214.49;;;-145.72;61.16
28648;BME280;17137;51.494;-0.262;2023-05-24T02:21:37;50218.81;;;-145.72;61.14
28648;BME280;17137;51.494;-0.262;2023-05-24T02:22:07;50208.21;;;-145.72;61.11
28648;BME280;17137;51.494;-0.262;2023-05-24T02:22:38;50200.44;;;-145.72;61.25
28648;BME280;17137;51.494;-0.262;2023-05-24T02:23:08;50218.68;;;-145.72;61.53
28648;BME280;17137;51.494;-0.262;2023-05-24T02:23:38;50220.66;;;-145.72;61.80
28648;BME280;17137;51.494;-0.262;2023-05-24T02:24:09;50217.33;;;-145.72;61.90
28648;BME280;17137;51.494;-0.262;2023-05-24T02:24:39;50205.00;;;-145.72;61.59
28648;BME280;17137;51.494;-0.262;2023-05-24T02:25:09;50220.66;;;-145.72;61.23
28648;BME280;17137;51.494;-0.262;2023-05-24T02:25:40;50233.97;;;-145.72;61.61
28648;BME280;17137;51.494;-0.262;2023-05-24T02:26:10;50230.89;;;-145.72;61.72
28648;BME280;17137;51.494;-0.262;2023-05-24T02:26:40;50238.16;;;-145.72;62.01
28648;BME280;17137;51.494;-0.262;2023-05-24T02:27:10;50234.83;;;-145.72;61.89
28648;BME280;17137;51.494;-0.262;2023-05-24T02:27:41;50234.09;;;-145.72;61.78
28648;BME280;17137;51.494;-0.262;2023-05-24T02:28:11;50239.52;;;-145.72;61.68
28648;BME280;17137;51.494;-0.262;2023-05-24T02:28:41;50222.38;;;-145.72;61.53
28648;BME280;17137;51.494;-0.262;2023-05-24T02:29:12;50231.38;;;-145.72;61.87
28648;BME280;17137;51.494;-0.262;2023-05-24T02:29:42;50238.65;;;-145.72;62.25
28648;BME280;17137;51.494;-0.262;2023-05-24T02:30:12;50238.04;;;-145.72;62.24
28648;BME280;17137;51.494;-0.262;2023-05-24T02:30:43;50231.26;;;-145.72;62.22
28648;BME280;17137;51.494;-0.262;2023-05-24T02:31:13;50224.60;;;-145.72;62.07
28648;BME280;17137;51.494;-0.262;2023-05-24T02:31:43;50244.94;;;-145.72;62.24
28648;BME280;17137;51.494;-0.262;2023-05-24T02:32:14;50232.24;;;-145.72;62.29
28648;BME280;17137;51.494;-0.262;2023-05-24T02:32:44;50241.73;;;-145.72;62.49
28648;BME280;17137;51.494;-0.262;2023-05-24T02:33:14;50243.95;;;-145.72;62.60
28648;BME280;17137;51.494;-0.262;2023-05-24T02:33:44;50233.60;;;-145.72;62.63
28648;BME280;17137;51.494;-0.262;2023-05-24T02:34:15;50238.90;;;-145.72;62.86
28648;BME280;17137;51.494;-0.262;2023-05-24T02:34:45;50235.45;;;-145.72;62.98
28648;BME280;17137;51.494;-0.262;2023-05-24T02:35:15;50240.26;;;-145.72;63.30
28648;BME280;17137;51.494;-0.262;2023-05-24T02:35:46;50246.42;;;-145.72;63.56
28648;BME280;17137;51.494;-0.262;2023-05-24T02:36:16;50253.32;;;-145.72;63.93
28648;BME280;17137;51.494;-0.262;2023-05-24T02:36:46;50244.20;;;-145.72;63.71
28648;BME280;17137;51.494;-0.262;2023-05-24T02:37:16;50238.28;;;-145.72;63.49
28648;BME280;17137;51.494;-0.262;2023-05-24T02:37:47;50235.69;;;-145.72;63.10
28648;BME280;17137;51.494;-0.262;2023-05-24T02:38:17;50229.28;;;-145.72;62.83
28648;BME280;17137;51.494;-0.262;2023-05-24T02:38:47;50239.64;;;-145.72;63.45
28648;BME280;17137;51.494;-0.262;2023-05-24T02:39:18;50240.13;;;-145.72;63.48
28648;BME280;17137;51.494;-0.262;2023-05-24T02:39:48;50233.11;;;-145.72;63.37
28648;BME280;17137;51.494;-0.262;2023-05-24T02:40:18;50238.04;;;-145.72;63.59
28648;BME280;17137;51.494;-0.262;2023-05-24T02:40:48;50233.35;;;-145.72;63.81
28648;BME280;17137;51.494;-0.262;2023-05-24T02:41:19;50247.40;;;-145.72;63.92
28648;BME280;17137;51.494;-0.262;2023-05-24T02:41:49;50243.09;;;-145.72;63.85
28648;BME280;17137;51.494;-0.262;2023-05-24T02:42:20;50234.83;;;-145.72;63.73
28648;BME280;17137;51.494;-0.262;2023-05-24T02:42:50;50228.05;;;-145.72;63.72
28648;BME280;17137;51.494;-0.262;2023-05-24T02:43:20;50243.46;;;-145.72;63.76
28648;BME280;17137;51.494;-0.262;2023-05-24T02:43:51;50251.97;;;-145.72;64.12